Time;durP1;ratioP1;P1;durP2;ratioP2;P2;SDS_P1;SDS_P2;PMS_P1;PMS_P2;Temp;Humidity;BMP_temperature;BMP_pressure;BME280_temperature;BME280_humidity;BME280_pressure;Samples;Min_cycle;Max_cycle;Signal;HPM_P1;HPM_P2
2023/06/29 00:00:57;;;;;;;3.00;1.80;;;;;;;24.74;53.88;100299.13;5068263;28;21032;-62
2023/06/29 00:03:22;;;;;;;4.20;2.00;;;;;;;24.75;53.41;100297.88;5079551;28;20179;-60
2023/06/29 00:05:48;;;;;;;4.00;2.07;;;;;;;24.74;53.57;100299.94;5071171;28;20209;-61
2023/06/29 00:08:13;;;;;;;4.80;2.30;;;;;;;24.74;53.49;100304.91;5073984;28;20525;-61
2023/06/29 00:10:40;;;;;;;5.53;1.97;;;;;;;24.74;53.73;100299.94;5089345;28;20162;-61
2023/06/29 00:13:05;;;;;;;3.73;1.93;;;;;;;24.74;53.63;100299.13;5090346;28;20226;-60
2023/06/29 00:15:30;;;;;;;5.93;2.20;;;;;;;24.73;53.78;100297.50;5083704;28;20441;-60
2023/06/29 00:17:57;;;;;;;4.77;2.13;;;;;;;24.73;53.51;100289.63;5071657;28;20240;-61
2023/06/29 00:20:24;;;;;;;3.00;1.67;;;;;;;24.71;53.36;100283.47;5087180;28;20159;-61
2023/06/29 00:22:49;;;;;;;4.83;2.10;;;;;;;24.70;53.34;100281.84;5084359;28;20475;-61
2023/06/29 00:25:16;;;;;;;4.00;1.87;;;;;;;24.72;53.75;100285.09;5089487;28;20456;-61
2023/06/29 00:27:42;;;;;;;3.57;1.70;;;;;;;24.71;54.14;100289.25;5091190;28;20182;-61
2023/06/29 00:30:08;;;;;;;3.40;2.00;;;;;;;24.71;53.64;100295.03;5086204;28;20448;-61
2023/06/29 00:32:33;;;;;;;2.73;1.60;;;;;;;24.72;53.73;100278.50;5089913;28;20205;-61
2023/06/29 00:34:59;;;;;;;3.50;2.03;;;;;;;24.71;53.85;100282.63;5071512;28;20243;-61
2023/06/29 00:37:24;;;;;;;3.10;1.73;;;;;;;24.71;53.62;100283.47;5089885;28;20162;-61
2023/06/29 00:39:50;;;;;;;3.77;1.80;;;;;;;24.71;54.00;100276.84;5082220;28;20190;-61
2023/06/29 00:42:15;;;;;;;4.77;2.43;;;;;;;24.71;53.74;100273.97;5074958;28;20482;-61
2023/06/29 00:44:40;;;;;;;3.93;1.83;;;;;;;24.71;53.54;100263.25;5070666;28;20194;-61
2023/06/29 00:47:06;;;;;;;2.70;1.73;;;;;;;24.70;53.97;100255.00;5071580;28;20187;-61
2023/06/29 00:49:31;;;;;;;3.00;1.90;;;;;;;24.71;53.59;100260.38;5076866;28;20189;-61
2023/06/29 00:51:57;;;;;;;3.60;1.87;;;;;;;24.69;53.84;100254.19;5084524;28;20224;-60
2023/06/29 00:54:22;;;;;;;4.53;1.83;;;;;;;24.70;53.92;100258.72;5092042;28;20170;-60
2023/06/29 00:56:48;;;;;;;2.47;1.70;;;;;;;24.70;53.93;100252.13;5091865;28;20182;-60
2023/06/29 00:59:14;;;;;;;2.77;1.77;;;;;;;24.70;53.75;100252.13;5090984;28;20179;-61
2023/06/29 01:01:40;;;;;;;3.67;1.80;;;;;;;24.70;53.91;100252.94;5085317;28;20474;-64
2023/06/29 01:04:06;;;;;;;4.23;2.00;;;;;;;24.70;53.93;100252.13;5082904;28;20258;-64
2023/06/29 01:06:33;;;;;;;3.17;1.67;;;;;;;24.69;53.78;100250.50;5073733;28;20503;-64
2023/06/29 01:09:04;;;;;;;6.80;2.23;;;;;;;24.68;53.77;100255.44;5070757;28;20426;-64
2023/06/29 01:11:31;;;;;;;3.03;2.20;;;;;;;24.69;53.90;100256.25;5053250;28;20801;-64
2023/06/29 01:13:56;;;;;;;6.53;2.23;;;;;;;24.67;53.42;100256.69;5072265;28;20468;-64
2023/06/29 01:16:22;;;;;;;3.10;2.03;;;;;;;24.69;53.97;100253.38;5073350;28;20420;-64
2023/06/29 01:18:48;;;;;;;4.23;2.33;;;;;;;24.66;54.21;100255.03;5090528;28;20736;-64
2023/06/29 01:21:14;;;;;;;3.23;2.07;;;;;;;24.67;53.96;100253.78;5086668;28;20448;-64
2023/06/29 01:23:39;;;;;;;2.80;1.90;;;;;;;24.67;54.12;100248.00;5054862;28;20190;-64
2023/06/29 01:26:08;;;;;;;3.13;1.90;;;;;;;24.67;53.95;100241.41;5070876;28;20821;-63
2023/06/29 01:28:38;;;;;;;2.60;1.67;;;;;;;24.66;54.03;100245.53;5086259;28;20186;-64
2023/06/29 01:31:06;;;;;;;5.10;1.93;;;;;;;24.67;53.77;100248.00;5071247;28;20968;-64
2023/06/29 01:33:31;;;;;;;4.87;2.27;;;;;;;24.65;54.03;100241.84;5088679;28;20498;-64
2023/06/29 01:36:03;;;;;;;3.90;1.77;;;;;;;24.65;53.96;100238.97;5067885;28;20440;-64
2023/06/29 01:38:42;;;;;;;3.83;2.07;;;;;;;24.65;54.03;100233.19;5036087;28;20501;-64
2023/06/29 01:41:08;;;;;;;3.37;2.00;;;;;;;24.65;54.12;100236.09;5074275;28;20535;-64
2023/06/29 01:43:33;;;;;;;4.43;2.17;;;;;;;24.64;54.03;100228.63;5071989;28;20429;-64
2023/06/29 01:45:59;;;;;;;3.73;1.60;;;;;;;24.64;53.96;100240.19;5091367;28;20200;-64
2023/06/29 01:48:24;;;;;;;2.93;1.80;;;;;;;24.64;54.34;100233.63;5091055;28;20610;-64
2023/06/29 01:50:50;;;;;;;2.60;1.77;;;;;;;24.64;53.90;100237.31;5063511;28;20636;-64
2023/06/29 01:53:15;;;;;;;5.30;2.57;;;;;;;24.63;54.32;100235.66;5069612;28;20183;-64
2023/06/29 01:55:41;;;;;;;3.17;2.00;;;;;;;24.63;54.04;100232.78;5069784;28;20170;-64
2023/06/29 01:58:06;;;;;;;8.33;2.13;;;;;;;24.62;54.31;100234.03;5069466;28;20189;-64
2023/06/29 02:00:32;;;;;;;3.10;2.13;;;;;;;24.63;54.08;100229.91;5071960;28;20239;-64
2023/06/29 02:02:57;;;;;;;3.20;1.97;;;;;;;24.63;54.12;100232.78;5077647;28;20178;-64
2023/06/29 02:05:23;;;;;;;3.90;2.17;;;;;;;24.62;54.41;100234.03;5084531;28;20186;-64
2023/06/29 02:07:48;;;;;;;6.03;2.87;;;;;;;24.62;54.26;100236.91;5090184;28;20194;-64
2023/06/29 02:10:14;;;;;;;3.13;2.10;;;;;;;24.63;54.43;100240.63;5089905;28;20818;-64
2023/06/29 02:12:40;;;;;;;3.33;1.73;;;;;;;24.62;54.25;100234.03;5054156;28;20206;-64
2023/06/29 02:15:06;;;;;;;4.73;2.40;;;;;;;24.62;54.31;100234.03;5051072;28;20179;-63
2023/06/29 02:17:31;;;;;;;3.83;1.90;;;;;;;24.61;54.07;100232.41;5072542;28;20445;-64
2023/06/29 02:19:57;;;;;;;3.90;1.90;;;;;;;24.62;54.48;100230.31;5050509;28;20811;-64
2023/06/29 02:22:22;;;;;;;4.07;2.27;;;;;;;24.62;54.35;100227.41;5068250;28;20175;-64
2023/06/29 02:24:47;;;;;;;3.53;2.03;;;;;;;24.61;54.05;100232.41;5086082;28;20191;-64
2023/06/29 02:27:13;;;;;;;3.80;2.27;;;;;;;24.61;54.38;100232.41;5069734;28;20189;-64
2023/06/29 02:29:39;;;;;;;3.90;2.20;;;;;;;24.61;54.25;100228.69;5083421;28;20186;-64
2023/06/29 02:32:05;;;;;;;5.27;2.20;;;;;;;24.60;54.40;100222.09;5087856;28;20185;-64
2023/06/29 02:34:30;;;;;;;2.90;1.70;;;;;;;24.60;54.05;100230.75;5087815;28;20535;-64
2023/06/29 02:36:56;;;;;;;4.33;2.37;;;;;;;24.60;54.38;100224.16;5070752;28;20779;-64
2023/06/29 02:39:21;;;;;;;2.87;1.73;;;;;;;24.60;54.41;100230.75;5071214;28;20179;-64
2023/06/29 02:41:47;;;;;;;2.87;1.60;;;;;;;24.60;54.34;100232.81;5078928;28;20248;-64
2023/06/29 02:44:12;;;;;;;3.50;2.30;;;;;;;24.59;54.20;100216.75;5089508;28;20211;-64
2023/06/29 02:46:37;;;;;;;3.20;1.70;;;;;;;24.58;54.29;100224.56;5088037;28;20244;-64
2023/06/29 02:49:03;;;;;;;3.43;1.87;;;;;;;24.58;54.35;100226.63;5068917;28;20201;-64
2023/06/29 02:51:28;;;;;;;3.80;2.50;;;;;;;24.58;54.27;100224.56;5069340;28;20217;-64
2023/06/29 02:53:54;;;;;;;3.13;1.97;;;;;;;24.57;54.40;100222.91;5061974;28;20210;-64
2023/06/29 02:56:19;;;;;;;3.37;1.90;;;;;;;24.57;54.29;100225.78;5089749;28;20553;-64
2023/06/29 02:58:45;;;;;;;5.23;2.10;;;;;;;24.57;54.20;100225.78;5086046;28;20182;-64
2023/06/29 03:01:10;;;;;;;3.20;2.00;;;;;;;24.57;54.34;100227.84;5087832;28;20222;-64
2023/06/29 03:03:35;;;;;;;3.43;1.97;;;;;;;24.56;54.30;100221.25;5076123;28;20189;-64
2023/06/29 03:06:01;;;;;;;3.00;1.90;;;;;;;24.57;54.33;100213.41;5054212;28;20174;-64
2023/06/29 03:08:26;;;;;;;3.50;2.10;;;;;;;24.57;54.21;100219.19;5088453;28;20178;-64
2023/06/29 03:10:52;;;;;;;2.97;1.70;;;;;;;24.57;54.29;100220.00;5086826;28;20185;-64
2023/06/29 03:13:17;;;;;;;4.23;2.23;;;;;;;24.55;54.23;100210.97;5077538;28;20203;-64
2023/06/29 03:15:42;;;;;;;2.93;1.90;;;;;;;24.55;54.32;100219.63;5066245;28;20187;-64
2023/06/29 03:18:08;;;;;;;3.80;2.17;;;;;;;24.55;54.42;100213.84;5071310;28;20200;-64
2023/06/29 03:20:33;;;;;;;3.17;1.90;;;;;;;24.55;54.05;100216.75;5083612;28;20475;-64
2023/06/29 03:22:59;;;;;;;3.80;2.03;;;;;;;24.54;54.27;100215.06;5085166;28;20159;-64
2023/06/29 03:25:24;;;;;;;3.70;1.90;;;;;;;24.56;54.19;100217.53;5076673;28;20183;-64
2023/06/29 03:27:50;;;;;;;4.07;2.37;;;;;;;24.55;54.41;100208.09;5079854;28;20175;-64
2023/06/29 03:30:15;;;;;;;3.03;1.90;;;;;;;24.54;54.37;100220.84;5085199;28;20185;-64
2023/06/29 03:32:41;;;;;;;3.20;2.20;;;;;;;24.54;54.45;100203.53;5085944;28;20757;-63
2023/06/29 03:35:07;;;;;;;3.73;2.10;;;;;;;24.53;54.13;100213.44;5087850;28;20171;-64
2023/06/29 03:37:33;;;;;;;3.90;2.13;;;;;;;24.53;54.03;100212.63;5087218;28;20310;-64
2023/06/29 03:39:58;;;;;;;3.63;2.00;;;;;;;24.53;54.31;100216.31;5085359;28;20942;-64
2023/06/29 03:42:25;;;;;;;4.70;2.63;;;;;;;24.53;54.16;100212.63;5074453;28;20177;-64
2023/06/29 03:44:51;;;;;;;3.10;2.17;;;;;;;24.53;54.33;100212.63;5071038;28;20166;-64
2023/06/29 03:47:17;;;;;;;3.57;2.20;;;;;;;24.53;54.53;100206.88;5088773;28;20462;-64
2023/06/29 03:49:42;;;;;;;3.40;2.10;;;;;;;24.51;54.24;100204.41;5085298;28;20458;-64
2023/06/29 03:52:08;;;;;;;4.93;2.27;;;;;;;24.52;54.26;100206.03;5071055;28;20183;-64
2023/06/29 03:54:33;;;;;;;3.30;2.00;;;;;;;24.52;54.33;100205.19;5089396;28;20255;-64
2023/06/29 03:56:58;;;;;;;4.13;2.23;;;;;;;24.51;54.38;100213.06;5089087;28;20170;-64
2023/06/29 03:59:25;;;;;;;3.43;2.47;;;;;;;24.52;54.24;100210.97;5086671;28;20326;-64
2023/06/29 04:01:50;;;;;;;3.77;2.27;;;;;;;24.51;53.84;100204.41;5070732;28;20597;-64
2023/06/29 04:04:15;;;;;;;4.23;2.33;;;;;;;24.51;54.31;100204.41;5092692;28;20424;-64
2023/06/29 04:06:41;;;;;;;4.97;2.20;;;;;;;24.51;54.34;100210.16;5091726;28;20661;-64
2023/06/29 04:09:06;;;;;;;4.27;2.40;;;;;;;24.52;54.45;100211.81;5073589;28;20637;-64
2023/06/29 04:11:32;;;;;;;5.77;2.30;;;;;;;24.51;54.13;100204.41;5083075;28;20835;-64
2023/06/29 04:13:57;;;;;;;3.70;2.53;;;;;;;24.51;54.10;100209.34;5071665;28;20731;-64
2023/06/29 04:16:23;;;;;;;3.30;1.97;;;;;;;24.50;54.18;100211.41;5088425;28;20170;-64
2023/06/29 04:18:48;;;;;;;4.23;1.90;;;;;;;24.50;54.27;100208.53;5072094;28;20183;-64
2023/06/29 04:21:14;;;;;;;3.93;2.43;;;;;;;24.49;54.19;100206.88;5063746;28;20334;-64
2023/06/29 04:23:39;;;;;;;3.43;2.10;;;;;;;24.50;54.03;100214.31;5061585;28;20171;-64
2023/06/29 04:26:05;;;;;;;4.77;2.23;;;;;;;24.49;54.31;100206.88;5071311;28;20156;-64
2023/06/29 04:28:34;;;;;;;3.80;2.43;;;;;;;24.49;54.36;100200.28;5073956;28;20178;-64
2023/06/29 04:31:00;;;;;;;3.30;1.83;;;;;;;24.50;54.86;100202.75;5072327;28;20202;-64
2023/06/29 04:33:25;;;;;;;3.50;2.20;;;;;;;24.49;54.55;100201.09;5083590;28;20459;-64
2023/06/29 04:35:50;;;;;;;5.03;2.37;;;;;;;24.49;54.37;100198.22;5091611;28;20181;-64
2023/06/29 04:38:17;;;;;;;3.50;2.27;;;;;;;24.49;54.33;100203.97;5088106;28;20178;-64
2023/06/29 04:40:43;;;;;;;3.40;2.00;;;;;;;24.49;54.29;100200.28;5092023;28;20230;-64
2023/06/29 04:43:08;;;;;;;4.27;2.50;;;;;;;24.50;54.01;100199.88;5088343;28;20436;-64
2023/06/29 04:45:34;;;;;;;2.90;1.97;;;;;;;24.51;54.38;100200.69;5091755;28;20193;-64
2023/06/29 04:47:59;;;;;;;2.80;1.93;;;;;;;24.52;54.19;100205.19;5092356;28;20269;-64
2023/06/29 04:50:25;;;;;;;3.53;2.20;;;;;;;24.51;54.06;100204.41;5091599;28;20171;-64
2023/06/29 04:52:58;;;;;;;3.47;2.10;;;;;;;24.49;54.31;100195.31;5082690;28;20206;-64
2023/06/29 04:55:24;;;;;;;3.57;2.30;;;;;;;24.50;54.37;100190.38;5071772;28;20639;-64
2023/06/29 04:57:49;;;;;;;2.70;2.20;;;;;;;24.52;54.30;100191.59;5071831;28;20412;-64
2023/06/29 05:00:15;;;;;;;3.60;2.30;;;;;;;24.52;54.46;100190.75;5071422;28;20589;-64
2023/06/29 05:02:43;;;;;;;3.37;2.20;;;;;;;24.53;54.41;100190.34;5079035;28;20736;-64
2023/06/29 05:05:08;;;;;;;4.10;2.40;;;;;;;24.53;54.38;100187.47;5091045;28;20190;-64
2023/06/29 05:07:34;;;;;;;3.10;2.47;;;;;;;24.53;54.40;100178.81;5062148;28;20453;-64
2023/06/29 05:10:00;;;;;;;4.37;2.20;;;;;;;24.54;54.47;100174.66;5071620;28;20186;-64
2023/06/29 05:12:25;;;;;;;2.83;2.00;;;;;;;24.56;54.88;100174.25;5050417;28;20198;-64
2023/06/29 05:14:51;;;;;;;3.13;2.20;;;;;;;24.55;54.86;100176.31;5071842;28;20198;-64
2023/06/29 05:17:17;;;;;;;3.87;2.37;;;;;;;24.53;54.86;100160.69;5088178;28;20247;-64
2023/06/29 05:19:43;;;;;;;4.67;2.43;;;;;;;24.52;54.96;100170.56;5084701;28;20868;-64
2023/06/29 05:22:08;;;;;;;3.17;2.10;;;;;;;24.54;54.88;100170.97;5070085;28;20492;-64
2023/06/29 05:24:34;;;;;;;3.47;2.17;;;;;;;24.56;54.85;100174.25;5057351;28;20293;-64
2023/06/29 05:26:59;;;;;;;3.57;2.17;;;;;;;24.54;54.97;100177.56;5081824;28;20682;-64
2023/06/29 05:29:25;;;;;;;4.13;2.43;;;;;;;24.52;54.94;100177.16;5085559;28;20544;-64
2023/06/29 05:31:50;;;;;;;5.57;2.10;;;;;;;24.52;54.87;100176.34;5058333;28;20182;-64
2023/06/29 05:34:16;;;;;;;3.93;1.90;;;;;;;24.50;54.70;100173.91;5089821;28;20251;-64
2023/06/29 05:36:41;;;;;;;3.10;2.30;;;;;;;24.50;54.75;100176.78;5080267;28;20194;-64
2023/06/29 05:39:07;;;;;;;3.63;2.13;;;;;;;24.50;54.90;100179.66;5071374;28;20190;-64
2023/06/29 05:41:32;;;;;;;3.10;2.13;;;;;;;24.50;54.99;100182.56;5079185;28;20186;-64
2023/06/29 05:43:57;;;;;;;4.30;2.23;;;;;;;24.49;54.91;100178.00;5090072;28;20223;-64
2023/06/29 05:46:23;;;;;;;3.77;2.50;;;;;;;24.49;54.77;100178.00;5068476;28;20171;-64
2023/06/29 05:48:48;;;;;;;4.20;2.37;;;;;;;24.50;54.77;100167.28;5065905;28;20186;-64
2023/06/29 05:51:14;;;;;;;3.53;2.40;;;;;;;24.49;54.75;100175.13;5082923;28;20174;-64
2023/06/29 05:53:40;;;;;;;4.63;2.57;;;;;;;24.49;54.66;100171.44;5078008;28;20199;-64
2023/06/29 05:56:05;;;;;;;3.43;2.20;;;;;;;24.49;54.67;100174.31;5075858;28;20178;-63
2023/06/29 05:58:31;;;;;;;5.90;2.90;;;;;;;24.49;54.97;100172.22;5060860;28;20637;-64
2023/06/29 06:00:56;;;;;;;3.83;2.10;;;;;;;24.48;54.71;100167.72;5077503;28;20271;-64
2023/06/29 06:03:23;;;;;;;4.97;2.40;;;;;;;24.49;54.79;100174.31;5061629;28;20190;-64
2023/06/29 06:05:48;;;;;;;3.57;2.40;;;;;;;24.49;54.56;100171.44;5058787;28;20171;-63
2023/06/29 06:08:14;;;;;;;3.17;2.10;;;;;;;24.48;54.83;100169.78;5079001;28;20455;-64
2023/06/29 06:10:39;;;;;;;3.87;2.50;;;;;;;24.48;54.73;100164.03;5082768;28;20170;-64
2023/06/29 06:13:05;;;;;;;4.77;2.33;;;;;;;24.47;54.59;100168.97;5088399;28;20194;-64
2023/06/29 06:15:30;;;;;;;3.53;2.73;;;;;;;24.48;54.74;100172.69;5083396;28;20186;-64
2023/06/29 06:17:56;;;;;;;4.33;2.40;;;;;;;24.48;54.76;100172.69;5070802;28;20194;-64
2023/06/29 06:20:21;;;;;;;4.40;2.30;;;;;;;24.47;54.62;100168.97;5050757;28;20178;-64
2023/06/29 06:22:47;;;;;;;3.90;2.73;;;;;;;24.47;54.73;100165.25;5076198;28;20221;-64
2023/06/29 06:25:15;;;;;;;6.43;2.73;;;;;;;24.47;54.72;100173.91;5077492;28;20699;-64
2023/06/29 06:27:41;;;;;;;3.20;2.30;;;;;;;24.46;54.69;100166.50;5080253;28;20174;-64
2023/06/29 06:30:07;;;;;;;4.00;2.27;;;;;;;24.46;54.67;100175.16;5057664;28;20482;-64
2023/06/29 06:32:32;;;;;;;6.33;2.47;;;;;;;24.45;54.60;100170.63;5080037;28;20948;-61
2023/06/29 06:34:58;;;;;;;4.50;2.30;;;;;;;24.49;55.02;100172.22;5087988;28;20428;-61
2023/06/29 06:37:23;;;;;;;6.30;4.27;;;;;;;24.64;57.13;100173.78;5054979;28;20647;-61
2023/06/29 06:39:49;;;;;;;11.00;5.10;;;;;;;24.75;57.66;100174.53;5084753;28;20194;-60
2023/06/29 06:42:14;;;;;;;6.73;4.67;;;;;;;24.68;58.30;100179.56;5088132;28;20178;-61
2023/06/29 06:45:03;;;;;;;10.33;4.03;;;;;;;24.58;57.16;100181.25;5049873;28;20641;-61
2023/06/29 06:47:29;;;;;;;11.97;3.70;;;;;;;24.54;58.55;100177.56;5083816;28;20296;-62
2023/06/29 06:49:54;;;;;;;12.57;3.70;;;;;;;24.59;59.13;100182.09;5086882;28;20405;-61
2023/06/29 06:52:20;;;;;;;12.07;3.97;;;;;;;24.62;59.01;100175.47;5078175;28;20194;-61
2023/06/29 06:54:45;;;;;;;4.80;3.43;;;;;;;24.62;58.91;100170.50;5082346;28;20186;-61
2023/06/29 06:57:11;;;;;;;8.33;4.17;;;;;;;24.52;58.11;100171.41;5087054;28;20170;-61
2023/06/29 06:59:36;;;;;;;10.63;3.97;;;;;;;24.57;58.16;100175.88;5084481;28;20180;-60
2023/06/29 07:02:01;;;;;;;6.60;3.67;;;;;;;24.59;58.74;100176.31;5083807;28;20230;-61
2023/06/29 07:04:27;;;;;;;11.03;4.13;;;;;;;24.56;58.05;100177.97;5085668;28;20171;-61
2023/06/29 07:06:52;;;;;;;7.93;3.60;;;;;;;24.58;57.53;100174.66;5059331;28;20210;-62
2023/06/29 07:09:18;;;;;;;11.43;3.70;;;;;;;24.54;58.06;100174.66;5084539;28;20182;-62
2023/06/29 07:11:43;;;;;;;6.07;3.70;;;;;;;24.55;57.70;100170.56;5086086;28;20298;-61
2023/06/29 07:14:09;;;;;;;12.47;3.83;;;;;;;24.59;57.23;100177.13;5086146;28;20198;-61
2023/06/29 07:16:34;;;;;;;9.50;3.90;;;;;;;24.58;57.29;100168.88;5087814;28;20161;-61
2023/06/29 07:19:04;;;;;;;9.27;3.80;;;;;;;24.57;57.34;100170.94;5082993;28;20210;-61
2023/06/29 07:21:29;;;;;;;10.33;4.00;;;;;;;24.53;57.73;100167.25;5084684;28;20194;-61
2023/06/29 07:23:55;;;;;;;6.37;3.90;;;;;;;24.61;57.53;100165.16;5082105;28;20802;-62
2023/06/29 07:26:22;;;;;;;7.60;3.80;;;;;;;24.65;57.21;100163.91;5083435;28;20194;-61
2023/06/29 07:28:47;;;;;;;5.80;4.20;;;;;;;24.59;57.17;100167.66;5087049;28;20180;-61
2023/06/29 07:31:13;;;;;;;6.70;4.30;;;;;;;24.60;57.45;100166.41;5080769;28;20443;-60
2023/06/29 07:33:38;;;;;;;7.70;4.00;;;;;;;24.65;57.13;100168.84;5088002;28;20576;-61
2023/06/29 07:36:04;;;;;;;7.27;3.53;;;;;;;24.60;56.41;100164.34;5085585;28;20185;-61
2023/06/29 07:38:30;;;;;;;6.23;3.37;;;;;;;24.61;56.58;100157.34;5071165;28;20178;-61
2023/06/29 07:40:55;;;;;;;7.80;3.67;;;;;;;24.63;56.73;100171.34;5080596;28;20501;-61
2023/06/29 07:43:21;;;;;;;4.30;3.10;;;;;;;24.65;56.89;100166.78;5087465;28;20177;-60
2023/06/29 07:45:46;;;;;;;8.10;3.73;;;;;;;24.67;56.68;100175.84;5080737;28;20179;-61
2023/06/29 07:48:12;;;;;;;7.13;3.40;;;;;;;24.67;56.72;100160.56;5089606;28;20219;-61
2023/06/29 07:50:37;;;;;;;9.93;3.57;;;;;;;24.69;56.76;100164.66;5075351;28;20179;-60
2023/06/29 07:53:03;;;;;;;5.33;3.30;;;;;;;24.70;56.94;100169.22;5085499;28;20529;-61
2023/06/29 07:55:28;;;;;;;6.80;3.40;;;;;;;24.73;56.79;100170.44;5081959;28;20179;-61
2023/06/29 07:57:54;;;;;;;8.80;3.80;;;;;;;24.69;56.33;100160.97;5071923;28;20191;-60
2023/06/29 08:00:21;;;;;;;10.23;4.13;;;;;;;24.68;55.86;100154.38;5070976;28;20233;-61
2023/06/29 08:02:47;;;;;;;4.57;2.93;;;;;;;24.65;56.45;100163.91;5076570;28;20185;-61
2023/06/29 08:05:13;;;;;;;6.77;3.53;;;;;;;24.59;56.22;100168.47;5080369;28;20440;-61
2023/06/29 08:07:39;;;;;;;7.70;3.80;;;;;;;24.56;55.83;100160.66;5087398;28;20233;-61
2023/06/29 08:10:05;;;;;;;6.43;3.80;;;;;;;24.54;55.50;100171.78;5071099;28;20431;-61
2023/06/29 08:12:31;;;;;;;8.03;4.27;;;;;;;24.53;55.77;100167.25;5070625;28;20293;-61
2023/06/29 08:14:56;;;;;;;7.00;3.80;;;;;;;24.53;55.43;100164.38;5075079;28;20888;-61
2023/06/29 08:17:23;;;;;;;7.20;3.80;;;;;;;24.55;55.32;100163.94;5072557;28;20174;-61
2023/06/29 08:19:48;;;;;;;9.10;4.10;;;;;;;24.53;55.08;100164.38;5090618;28;20525;-61
2023/06/29 08:22:14;;;;;;;6.87;4.20;;;;;;;24.53;55.02;100167.25;5065154;28;20444;-61
2023/06/29 08:24:39;;;;;;;8.13;3.80;;;;;;;24.55;56.72;100159.00;5060290;28;20209;-62
2023/06/29 08:27:05;;;;;;;8.93;3.80;;;;;;;24.65;57.93;100166.78;5081690;28;20191;-60
2023/06/29 08:29:30;;;;;;;14.07;4.43;;;;;;;24.60;56.10;100170.13;5079566;28;20186;-61
2023/06/29 08:31:56;;;;;;;5.13;3.30;;;;;;;24.57;55.65;100159.38;5075322;28;20641;-61
2023/06/29 08:34:21;;;;;;;6.30;3.20;;;;;;;24.55;55.88;100164.78;5085204;28;20210;-61
2023/06/29 08:36:47;;;;;;;5.47;3.30;;;;;;;24.56;55.69;100159.81;5090097;28;20186;-61
2023/06/29 08:39:12;;;;;;;12.97;4.50;;;;;;;24.56;55.81;100159.81;5061744;28;20687;-61
2023/06/29 08:41:38;;;;;;;12.43;4.20;;;;;;;24.57;57.83;100150.72;5084147;28;20182;-61
2023/06/29 08:44:04;;;;;;;9.40;3.93;;;;;;;24.56;57.61;100159.81;5076855;28;20300;-61
2023/06/29 08:46:30;;;;;;;11.23;4.10;;;;;;;24.56;57.27;100154.03;5071226;28;20191;-61
2023/06/29 08:48:55;;;;;;;9.20;3.47;;;;;;;24.54;56.82;100151.56;5076604;28;20920;-62
2023/06/29 08:51:21;;;;;;;10.20;3.60;;;;;;;24.56;56.92;100148.25;5067852;28;20521;-62
2023/06/29 08:53:47;;;;;;;11.57;4.07;;;;;;;24.59;57.24;100154.03;5079659;28;20764;-62
2023/06/29 08:56:12;;;;;;;11.73;4.23;;;;;;;24.58;57.57;100146.63;5069622;28;20183;-62
2023/06/29 08:58:38;;;;;;;11.00;4.53;;;;;;;24.58;57.06;100145.78;5059929;28;20239;-62
2023/06/29 09:01:04;;;;;;;12.77;3.73;;;;;;;24.58;57.39;100140.84;5070597;28;20292;-62
2023/06/29 09:03:29;;;;;;;9.40;3.80;;;;;;;24.57;56.79;100144.97;5086269;28;20591;-62
2023/06/29 09:05:55;;;;;;;9.63;4.00;;;;;;;24.58;56.99;100145.78;5070669;28;20217;-62
2023/06/29 09:08:20;;;;;;;6.67;3.60;;;;;;;24.58;56.65;100135.06;5070189;28;20594;-62
2023/06/29 09:10:46;;;;;;;9.03;3.10;;;;;;;24.57;57.13;100135.47;5081161;28;20230;-62
2023/06/29 09:13:13;;;;;;;9.00;4.40;;;;;;;24.58;56.85;100140.84;5091300;28;20224;-61
2023/06/29 09:15:39;;;;;;;8.30;3.67;;;;;;;24.58;57.00;100137.13;5091683;28;20451;-61
2023/06/29 09:18:05;;;;;;;9.77;4.67;;;;;;;24.59;56.74;100133.03;5072157;28;20428;-61
2023/06/29 09:20:35;;;;;;;10.00;4.00;;;;;;;24.59;56.96;100133.03;5074738;28;20429;-62
2023/06/29 09:23:03;;;;;;;13.23;5.20;;;;;;;24.65;59.64;100134.19;5072346;28;20481;-62
2023/06/29 09:25:29;;;;;;;9.23;4.73;;;;;;;24.62;57.28;100135.88;5079238;28;21194;-61
2023/06/29 09:28:04;;;;;;;11.07;4.30;;;;;;;24.61;57.35;100130.50;5070731;28;20451;-62
2023/06/29 09:30:34;;;;;;;9.57;3.70;;;;;;;24.61;57.28;100134.22;5071573;28;20185;-61
2023/06/29 09:33:07;;;;;;;6.93;3.90;;;;;;;24.61;56.85;100128.47;5081857;28;20464;-62
2023/06/29 09:35:33;;;;;;;8.87;4.00;;;;;;;24.60;57.12;100123.94;5076075;28;20510;-61
2023/06/29 09:38:01;;;;;;;8.47;4.20;;;;;;;24.60;56.81;100126.81;5047659;28;20448;-61
2023/06/29 09:40:28;;;;;;;10.40;4.00;;;;;;;24.59;56.69;100130.94;5079341;28;20424;-62
2023/06/29 09:42:53;;;;;;;9.53;4.00;;;;;;;24.60;56.49;100126.00;5067984;28;20436;-62
2023/06/29 09:45:18;;;;;;;9.50;3.90;;;;;;;24.58;57.01;100123.53;5070015;28;20474;-62
2023/06/29 09:47:51;;;;;;;7.10;3.60;;;;;;;24.59;56.71;100130.94;5057184;28;20202;-62
2023/06/29 09:50:20;;;;;;;7.53;3.83;;;;;;;24.57;56.79;100116.09;5065968;28;20178;-62
2023/06/29 09:52:46;;;;;;;7.13;3.80;;;;;;;24.58;56.80;100123.53;5067239;28;20441;-62
2023/06/29 09:55:16;;;;;;;9.10;3.70;;;;;;;24.58;56.57;100117.75;5076870;28;20419;-61
2023/06/29 09:57:42;;;;;;;6.20;4.00;;;;;;;24.59;56.71;100118.59;5069791;28;20441;-62
2023/06/29 10:00:12;;;;;;;10.50;3.87;;;;;;;24.58;56.29;100120.63;5068191;28;20433;-62
2023/06/29 10:02:40;;;;;;;7.93;4.30;;;;;;;24.59;56.56;100125.16;5069360;28;20455;-62
2023/06/29 10:05:07;;;;;;;8.67;3.87;;;;;;;24.58;56.87;100117.75;5070616;28;20566;-62
2023/06/29 10:07:33;;;;;;;7.07;4.10;;;;;;;24.59;56.49;100122.28;5070237;28;20425;-61
2023/06/29 10:09:58;;;;;;;8.10;3.77;;;;;;;24.58;56.41;100123.53;5056721;28;20429;-62
2023/06/29 10:12:23;;;;;;;8.90;3.83;;;;;;;24.58;56.39;100129.31;5070441;28;20654;-62
2023/06/29 10:14:49;;;;;;;7.93;4.77;;;;;;;24.58;56.43;100123.53;5080616;28;20185;-62
2023/06/29 10:17:33;;;;;;;10.73;4.37;;;;;;;24.58;56.24;100120.63;5040311;28;20199;-61
2023/06/29 10:19:58;;;;;;;9.37;4.17;;;;;;;24.59;55.93;100121.47;5052049;28;20171;-62
2023/06/29 10:22:24;;;;;;;9.23;3.60;;;;;;;24.58;56.18;100117.75;5054910;28;20455;-62
2023/06/29 10:24:52;;;;;;;9.20;3.77;;;;;;;24.58;56.25;100106.22;5068747;28;20197;-62
2023/06/29 10:27:18;;;;;;;9.60;3.80;;;;;;;24.60;55.71;100117.34;5068811;28;20643;-62
2023/06/29 10:29:48;;;;;;;9.27;3.87;;;;;;;24.59;56.03;100113.63;5032486;28;20425;-62
2023/06/29 10:32:32;;;;;;;6.07;3.50;;;;;;;24.59;55.83;100116.50;5072197;28;20181;-62
2023/06/29 10:35:01;;;;;;;8.83;3.60;;;;;;;24.60;55.53;100118.16;5076806;28;20479;-62
2023/06/29 10:37:50;;;;;;;10.47;3.50;;;;;;;24.60;55.75;100121.06;5069903;28;20864;-62
2023/06/29 10:40:20;;;;;;;5.73;3.23;;;;;;;24.60;55.78;100112.38;5075136;28;20443;-62
2023/06/29 10:42:45;;;;;;;6.63;3.27;;;;;;;24.59;55.70;100110.72;5088211;28;20457;-62
2023/06/29 10:45:26;;;;;;;5.97;3.57;;;;;;;24.60;55.61;100108.69;5087587;28;20405;-62
2023/06/29 10:47:57;;;;;;;8.03;4.20;;;;;;;24.61;55.78;100102.47;5080044;28;20273;-62
2023/06/29 10:50:27;;;;;;;6.43;3.70;;;;;;;24.60;55.80;100092.19;5087262;28;21032;-62
2023/06/29 10:52:53;;;;;;;5.93;2.97;;;;;;;24.61;55.68;100099.59;5087171;28;20467;-62
2023/06/29 10:55:20;;;;;;;9.33;3.30;;;;;;;24.60;55.60;100088.47;5046143;28;20979;-62
2023/06/29 10:57:46;;;;;;;7.07;3.40;;;;;;;24.59;55.80;100087.63;5049771;28;20189;-62
2023/06/29 11:00:13;;;;;;;6.27;3.47;;;;;;;24.60;55.74;100092.19;5067475;28;20436;-62
2023/06/29 11:02:38;;;;;;;9.30;3.43;;;;;;;24.60;55.76;100097.13;5076885;28;20409;-62
2023/06/29 11:05:04;;;;;;;6.30;3.30;;;;;;;24.60;55.47;100103.72;5089072;28;20503;-62
2023/06/29 11:07:29;;;;;;;6.00;3.57;;;;;;;24.61;55.59;100107.41;5080538;28;20234;-62
2023/06/29 11:10:01;;;;;;;6.67;3.20;;;;;;;24.60;55.34;100097.13;5074312;28;20183;-62
2023/06/29 11:12:27;;;;;;;5.30;3.50;;;;;;;24.60;55.25;100092.19;5087268;28;20191;-62
2023/06/29 11:14:53;;;;;;;4.60;3.00;;;;;;;24.60;55.21;100086.41;5065737;28;20424;-62
2023/06/29 11:17:19;;;;;;;8.40;3.27;;;;;;;24.61;55.38;100093.81;5087687;28;20189;-62
2023/06/29 11:19:49;;;;;;;8.60;3.33;;;;;;;24.61;55.20;100088.03;5070935;28;20409;-62